Time;durP1;ratioP1;P1;durP2;ratioP2;P2;SDS_P1;SDS_P2;PMS_P1;PMS_P2;Temp;Humidity;BMP_temperature;BMP_pressure;BME280_temperature;BME280_humidity;BME280_pressure;Samples;Min_cycle;Max_cycle;Signal;HPM_P1;HPM_P2
2022/05/24 00:02:19;;;;;;;11.40;8.65;;;13.90;99.90;;;;;;5025774;28;20033;-74
2022/05/24 00:04:46;;;;;;;11.00;8.57;;;13.90;99.90;;;;;;5026145;28;20049;-74
2022/05/24 00:07:11;;;;;;;9.20;8.02;;;13.90;99.90;;;;;;5027846;28;20053;-74
2022/05/24 00:09:38;;;;;;;11.00;7.93;;;13.90;99.90;;;;;;5008385;28;20045;-74
2022/05/24 00:12:04;;;;;;;10.40;7.60;;;13.90;99.90;;;;;;5011502;28;20305;-75
2022/05/24 00:17:15;;;;;;;11.07;8.48;;;13.80;99.90;;;;;;5027524;28;20053;-75
2022/05/24 00:19:40;;;;;;;11.40;9.27;;;13.80;99.90;;;;;;5009178;28;20531;-75
2022/05/24 00:22:06;;;;;;;10.60;8.80;;;13.80;99.90;;;;;;5011655;28;20091;-76
2022/05/24 00:24:32;;;;;;;10.88;8.23;;;13.70;99.90;;;;;;5027528;28;20107;-76
2022/05/24 00:26:58;;;;;;;10.93;8.13;;;13.70;99.90;;;;;;5009265;28;20038;-76
2022/05/24 00:29:24;;;;;;;10.63;8.93;;;13.70;99.90;;;;;;4992365;28;20562;-75
2022/05/24 00:31:50;;;;;;;12.10;9.40;;;13.70;99.90;;;;;;5011117;28;20041;-76
2022/05/24 00:34:15;;;;;;;10.55;8.30;;;13.70;99.90;;;;;;4993322;28;20507;-75
2022/05/24 00:36:42;;;;;;;11.45;8.82;;;13.60;99.90;;;;;;5022592;28;20081;-75
2022/05/24 00:39:07;;;;;;;8.63;7.60;;;13.70;99.90;;;;;;5025722;28;20116;-75
2022/05/24 00:41:57;;;;;;;9.20;6.97;;;13.60;99.90;;;;;;5008435;28;20247;-75
2022/05/24 00:44:23;;;;;;;8.88;7.32;;;13.60;99.90;;;;;;5023969;28;20037;-74
2022/05/24 00:46:53;;;;;;;8.93;6.40;;;13.60;99.90;;;;;;5025945;28;20102;-76
2022/05/24 00:49:40;;;;;;;8.77;7.70;;;13.60;99.90;;;;;;5027211;28;20033;-76
2022/05/24 00:52:09;;;;;;;9.20;6.57;;;13.50;99.90;;;;;;5026416;28;20495;-75
2022/05/24 00:54:35;;;;;;;9.30;7.22;;;13.50;99.90;;;;;;5026692;28;20491;-75
2022/05/24 00:57:23;;;;;;;8.05;6.40;;;13.40;99.90;;;;;;5008667;28;20045;-75
2022/05/24 00:59:53;;;;;;;7.30;6.32;;;13.50;99.90;;;;;;5006938;28;20049;-75
2022/05/24 01:02:21;;;;;;;9.10;6.10;;;13.50;99.90;;;;;;5025133;28;20049;-75
2022/05/24 01:04:46;;;;;;;6.60;5.80;;;13.40;99.90;;;;;;5023849;28;20128;-74
2022/05/24 01:07:12;;;;;;;8.60;5.82;;;13.40;99.90;;;;;;5026973;28;20128;-75
2022/05/24 01:09:44;;;;;;;7.57;5.70;;;13.40;99.90;;;;;;5005717;28;20068;-75
2022/05/24 01:12:19;;;;;;;7.65;5.53;;;13.40;99.90;;;;;;5026564;28;20372;-75
2022/05/24 01:14:46;;;;;;;9.00;6.22;;;13.40;99.90;;;;;;5026207;28;20063;-75
2022/05/24 01:17:12;;;;;;;6.68;4.95;;;13.40;99.90;;;;;;5021742;28;20107;-75
2022/05/24 01:19:44;;;;;;;8.88;5.53;;;13.40;99.90;;;;;;5007729;28;20617;-75
2022/05/24 01:22:31;;;;;;;7.93;6.07;;;13.30;99.90;;;;;;5026434;28;20391;-75
2022/05/24 01:25:12;;;;;;;8.20;6.13;;;13.30;99.90;;;;;;5024271;28;20049;-75
2022/05/24 01:27:38;;;;;;;7.93;6.15;;;13.20;99.90;;;;;;5022106;28;20053;-75
2022/05/24 01:30:06;;;;;;;8.60;6.35;;;13.20;99.90;;;;;;4992465;28;20052;-74
2022/05/24 01:38:04;;;;;;;11.13;9.85;;;13.20;99.90;;;;;;5026415;28;20144;-74
2022/05/24 01:40:30;;;;;;;16.83;12.05;;;13.20;99.90;;;;;;5021414;28;20511;-74
2022/05/24 01:42:56;;;;;;;11.77;10.57;;;13.20;99.90;;;;;;5024017;28;20049;-75
2022/05/24 01:45:33;;;;;;;19.15;13.38;;;13.20;99.90;;;;;;5008465;28;20041;-75
2022/05/24 01:48:04;;;;;;;14.77;13.27;;;13.20;99.90;;;;;;5025794;28;20580;-73
2022/05/24 01:50:32;;;;;;;16.33;13.32;;;13.20;99.90;;;;;;5025938;28;20207;-73
2022/05/24 01:53:07;;;;;;;16.98;14.50;;;13.20;99.90;;;;;;5026523;28;20120;-73
2022/05/24 01:55:51;;;;;;;16.00;14.50;;;13.20;99.90;;;;;;5021680;28;20178;-73
2022/05/24 01:58:20;;;;;;;17.67;15.82;;;13.20;99.90;;;;;;5008362;28;20431;-73
2022/05/24 02:01:02;;;;;;;16.92;15.23;;;13.20;99.90;;;;;;5007989;28;20049;-73
2022/05/24 02:03:28;;;;;;;18.65;16.75;;;13.20;99.90;;;;;;4996409;28;20049;-73
2022/05/24 02:05:54;;;;;;;20.52;18.40;;;13.20;99.90;;;;;;5043852;28;20049;-73
2022/05/24 02:08:20;;;;;;;22.15;19.95;;;13.20;99.90;;;;;;4991473;28;20038;-74
2022/05/24 02:10:51;;;;;;;24.58;22.10;;;13.20;99.90;;;;;;5007303;28;20064;-73
2022/05/24 02:13:25;;;;;;;22.77;20.52;;;13.20;99.90;;;;;;5027529;28;20045;-73
2022/05/24 02:15:55;;;;;;;23.80;21.25;;;13.10;99.90;;;;;;5009774;28;20154;-74
2022/05/24 02:18:23;;;;;;;26.88;24.08;;;13.20;99.90;;;;;;5027553;28;20064;-74
2022/05/24 02:20:49;;;;;;;26.27;23.58;;;13.20;99.90;;;;;;5007186;28;20510;-73
2022/05/24 02:23:17;;;;;;;24.27;21.77;;;13.20;99.90;;;;;;5040596;28;20045;-73
2022/05/24 02:25:56;;;;;;;21.55;19.52;;;13.20;99.90;;;;;;5008399;28;20131;-73
2022/05/24 02:28:26;;;;;;;24.42;21.83;;;13.20;99.90;;;;;;5008133;28;20041;-73
2022/05/24 02:30:56;;;;;;;27.27;24.33;;;13.20;99.90;;;;;;5011749;28;20072;-73
2022/05/24 02:33:23;;;;;;;26.42;23.50;;;13.20;99.90;;;;;;5026596;28;20403;-74
2022/05/24 02:35:50;;;;;;;26.98;22.60;;;13.30;99.90;;;;;;5030157;28;20057;-73
2022/05/24 02:38:16;;;;;;;28.27;25.48;;;13.30;99.90;;;;;;5030453;28;20073;-73
2022/05/24 02:43:26;;;;;;;30.55;27.35;;;13.30;99.90;;;;;;5025577;28;20049;-74
2022/05/24 02:45:52;;;;;;;31.88;28.45;;;13.30;99.90;;;;;;5001349;28;20052;-74
2022/05/24 02:48:18;;;;;;;30.10;26.95;;;13.20;99.90;;;;;;5014447;28;20049;-74
2022/05/24 02:50:44;;;;;;;35.30;31.52;;;13.30;99.90;;;;;;5030888;28;20064;-74
2022/05/24 02:53:10;;;;;;;35.45;30.60;;;13.30;99.90;;;;;;5016774;28;20046;-74
2022/05/24 02:55:36;;;;;;;38.28;32.15;;;13.30;99.90;;;;;;5014287;28;20046;-74
2022/05/24 02:58:03;;;;;;;39.08;34.55;;;13.30;99.90;;;;;;5020627;28;20046;-73
2022/05/24 03:00:29;;;;;;;40.17;35.75;;;13.40;99.90;;;;;;5029102;28;20057;-74
2022/05/24 03:02:55;;;;;;;45.17;36.80;;;13.40;99.90;;;;;;5037527;28;20077;-74
2022/05/24 03:05:22;;;;;;;43.22;37.03;;;13.40;99.90;;;;;;5023266;28;20135;-74
2022/05/24 03:10:33;;;;;;;45.97;39.78;;;13.40;99.90;;;;;;5030563;28;20408;-74
2022/05/24 03:15:45;;;;;;;50.25;41.33;;;13.50;99.90;;;;;;5012257;28;20049;-73
2022/05/24 03:18:12;;;;;;;47.30;41.80;;;13.50;99.90;;;;;;5010609;28;20530;-73
2022/05/24 03:20:39;;;;;;;53.38;42.58;;;13.50;99.90;;;;;;5010232;28;20111;-75
2022/05/24 03:23:05;;;;;;;48.28;41.47;;;13.50;99.90;;;;;;5015845;28;20529;-74
2022/05/24 03:25:35;;;;;;;49.25;42.47;;;13.50;99.90;;;;;;5007647;28;20042;-73
2022/05/24 03:28:03;;;;;;;52.03;43.67;;;13.50;99.90;;;;;;5012837;28;20059;-74
2022/05/24 03:30:30;;;;;;;54.05;44.42;;;13.60;99.90;;;;;;5017489;28;20154;-74
2022/05/24 03:32:56;;;;;;;47.70;42.67;;;13.60;99.90;;;;;;5027235;28;20069;-74
2022/05/24 03:35:22;;;;;;;51.28;42.30;;;13.60;99.90;;;;;;5014079;28;20135;-74
2022/05/24 03:37:48;;;;;;;50.53;43.25;;;13.60;99.90;;;;;;5008730;28;20072;-74
2022/05/24 03:40:17;;;;;;;47.10;42.00;;;13.60;99.90;;;;;;5027996;28;20057;-74
2022/05/24 03:42:45;;;;;;;46.33;40.88;;;13.70;99.90;;;;;;5013261;28;20041;-74
2022/05/24 03:45:11;;;;;;;47.90;42.88;;;13.70;99.90;;;;;;5029798;28;20136;-74
2022/05/24 03:47:38;;;;;;;44.97;40.10;;;13.70;99.90;;;;;;5011081;28;20620;-74
2022/05/24 03:50:08;;;;;;;44.55;40.10;;;13.70;99.90;;;;;;5012561;28;20138;-73
2022/05/24 03:52:34;;;;;;;46.25;41.55;;;13.70;99.90;;;;;;5029100;28;20057;-73
2022/05/24 03:55:00;;;;;;;42.33;38.03;;;13.70;99.90;;;;;;5029700;28;20174;-74
2022/05/24 04:00:12;;;;;;;39.92;35.78;;;13.70;99.90;;;;;;5013667;28;20049;-74
2022/05/24 04:02:39;;;;;;;39.03;35.22;;;13.70;99.90;;;;;;5018255;28;20051;-74
2022/05/24 04:05:05;;;;;;;41.70;37.28;;;13.70;99.90;;;;;;5024660;28;20120;-75
2022/05/24 04:07:30;;;;;;;42.20;37.92;;;13.70;99.90;;;;;;5012164;28;20034;-74
2022/05/24 04:09:57;;;;;;;40.70;36.42;;;13.70;99.90;;;;;;5012611;28;20045;-74
2022/05/24 04:12:23;;;;;;;38.42;34.65;;;13.80;99.90;;;;;;5007776;28;20103;-74
2022/05/24 04:14:49;;;;;;;38.53;34.40;;;13.80;99.90;;;;;;5009630;28;20057;-73
2022/05/24 04:17:15;;;;;;;38.17;34.38;;;13.80;99.90;;;;;;5013043;28;20057;-74
2022/05/24 04:19:40;;;;;;;36.22;32.60;;;13.80;99.90;;;;;;4996053;28;20508;-73
2022/05/24 04:22:06;;;;;;;37.58;33.97;;;13.80;99.90;;;;;;4996562;28;20056;-73
2022/05/24 04:24:32;;;;;;;34.22;30.85;;;13.80;99.90;;;;;;5012063;28;20044;-74
2022/05/24 04:26:58;;;;;;;35.15;31.75;;;13.80;99.90;;;;;;5028974;28;20038;-74
2022/05/24 04:29:24;;;;;;;33.92;30.63;;;13.80;99.90;;;;;;5008028;28;20038;-73
2022/05/24 04:31:49;;;;;;;35.45;31.83;;;13.80;99.90;;;;;;5007056;28;20049;-74
2022/05/24 04:34:16;;;;;;;35.42;31.85;;;13.80;99.90;;;;;;5012353;28;20084;-73
2022/05/24 04:36:42;;;;;;;37.05;33.28;;;13.90;99.90;;;;;;5025607;28;20143;-74
2022/05/24 04:39:07;;;;;;;35.25;31.75;;;13.90;99.90;;;;;;5003946;28;20108;-73
2022/05/24 04:44:17;;;;;;;37.03;33.05;;;13.90;99.90;;;;;;5027635;28;20046;-73
2022/05/24 04:49:30;;;;;;;34.15;30.65;;;13.90;99.90;;;;;;5015198;28;20053;-73
2022/05/24 04:51:56;;;;;;;32.95;29.52;;;13.90;99.90;;;;;;5011823;28;20048;-73
2022/05/24 04:54:22;;;;;;;35.58;31.88;;;13.90;99.90;;;;;;5028935;28;20053;-73
2022/05/24 04:56:48;;;;;;;36.85;33.13;;;13.90;99.90;;;;;;4995278;28;20049;-73
2022/05/24 04:59:17;;;;;;;36.10;32.30;;;14.00;99.90;;;;;;5011481;28;20045;-73
2022/05/24 05:01:46;;;;;;;39.92;35.58;;;14.00;99.90;;;;;;5015854;28;20106;-73
2022/05/24 05:04:12;;;;;;;39.35;35.10;;;13.90;99.90;;;;;;5037351;28;20037;-73
2022/05/24 05:06:43;;;;;;;37.78;33.88;;;13.90;99.90;;;;;;5009293;28;20045;-72
2022/05/24 05:09:10;;;;;;;39.33;35.05;;;13.90;99.90;;;;;;5010149;28;20487;-73
2022/05/24 05:11:36;;;;;;;39.60;35.35;;;13.90;99.90;;;;;;5026350;28;20041;-72
2022/05/24 05:14:02;;;;;;;37.22;33.13;;;13.90;99.90;;;;;;5022791;28;20518;-73
2022/05/24 05:16:28;;;;;;;37.42;32.10;;;13.80;99.90;;;;;;5025068;28;20403;-72
2022/05/24 05:18:54;;;;;;;35.28;31.65;;;13.80;99.90;;;;;;4991584;28;20138;-73
2022/05/24 05:21:20;;;;;;;37.60;33.20;;;13.80;99.90;;;;;;4998142;28;20125;-72
2022/05/24 05:23:46;;;;;;;36.67;32.72;;;13.80;99.90;;;;;;4989316;28;20045;-72
2022/05/24 05:26:14;;;;;;;37.72;33.65;;;13.80;99.90;;;;;;5009002;28;20037;-73
2022/05/24 05:28:41;;;;;;;37.65;33.80;;;13.80;99.90;;;;;;5010257;28;20455;-73
2022/05/24 05:31:17;;;;;;;36.88;32.58;;;13.80;99.90;;;;;;5023715;28;20499;-72
2022/05/24 05:33:44;;;;;;;35.38;31.55;;;13.80;99.90;;;;;;4994549;28;20041;-73
2022/05/24 05:36:10;;;;;;;35.47;31.55;;;13.90;99.90;;;;;;5009640;28;20037;-72
2022/05/24 05:38:37;;;;;;;32.85;29.60;;;13.90;99.90;;;;;;5009209;28;20052;-72
2022/05/24 05:41:04;;;;;;;30.08;26.85;;;13.90;99.90;;;;;;5020822;28;20146;-72
2022/05/24 05:43:30;;;;;;;28.75;25.85;;;13.90;99.90;;;;;;5035262;28;20046;-72
2022/05/24 05:45:59;;;;;;;32.47;28.30;;;13.90;99.90;;;;;;4997450;28;20049;-72
2022/05/24 05:48:26;;;;;;;29.05;26.13;;;13.80;99.90;;;;;;5010505;28;20491;-72
2022/05/24 05:50:52;;;;;;;28.45;25.50;;;13.80;99.90;;;;;;5013700;28;20048;-72
2022/05/24 05:53:19;;;;;;;30.17;26.23;;;13.80;99.90;;;;;;5017156;28;20056;-72
2022/05/24 05:55:45;;;;;;;30.27;25.35;;;13.80;99.90;;;;;;5040974;28;20045;-72
2022/05/24 05:58:12;;;;;;;28.45;24.58;;;13.80;99.90;;;;;;5009073;28;20038;-72
2022/05/24 06:00:39;;;;;;;29.65;24.45;;;13.90;99.90;;;;;;5023893;28;20098;-71
2022/05/24 06:03:06;;;;;;;27.33;24.45;;;13.90;99.90;;;;;;5008526;28;20092;-72
2022/05/24 06:05:32;;;;;;;27.20;24.30;;;13.90;99.90;;;;;;5023591;28;20049;-72
2022/05/24 06:07:58;;;;;;;27.40;24.23;;;13.80;99.90;;;;;;5023626;28;20037;-72
2022/05/24 06:10:25;;;;;;;26.38;23.55;;;13.80;99.90;;;;;;5022461;28;20042;-71
2022/05/24 06:12:51;;;;;;;26.23;23.30;;;13.90;99.90;;;;;;5022784;28;20046;-74
2022/05/24 06:15:18;;;;;;;28.25;23.10;;;13.90;99.90;;;;;;5020491;28;20477;-72
2022/05/24 06:17:45;;;;;;;25.10;22.45;;;14.00;99.90;;;;;;5003273;28;20049;-72
2022/05/24 06:20:12;;;;;;;24.23;21.95;;;14.10;99.90;;;;;;5004608;28;20058;-72
2022/05/24 06:22:38;;;;;;;25.85;23.15;;;14.10;99.90;;;;;;5003142;28;20584;-72
2022/05/24 06:25:05;;;;;;;26.27;22.73;;;14.10;99.90;;;;;;5008190;28;20049;-72
2022/05/24 06:27:31;;;;;;;26.05;22.27;;;14.10;99.90;;;;;;5022802;28;20056;-71
2022/05/24 06:29:56;;;;;;;23.15;20.75;;;14.10;99.90;;;;;;5008671;28;20049;-72
2022/05/24 06:32:22;;;;;;;24.10;21.45;;;14.10;99.90;;;;;;5008812;28;20046;-71
2022/05/24 06:34:49;;;;;;;23.15;20.65;;;14.00;99.90;;;;;;5016794;28;20056;-72
2022/05/24 06:37:21;;;;;;;24.27;21.58;;;14.00;99.90;;;;;;5008610;28;20044;-72
2022/05/24 06:39:47;;;;;;;23.20;20.88;;;14.00;99.90;;;;;;5009131;28;20053;-71
2022/05/24 06:42:14;;;;;;;24.02;20.80;;;14.00;99.90;;;;;;5009798;28;20484;-72
2022/05/24 06:44:40;;;;;;;25.20;21.38;;;14.00;99.90;;;;;;5007581;28;20045;-71
2022/05/24 06:47:06;;;;;;;23.63;20.10;;;14.00;99.90;;;;;;5025492;28;20381;-71
2022/05/24 06:49:31;;;;;;;24.90;22.20;;;14.00;99.90;;;;;;5006558;28;20046;-71
2022/05/24 06:51:57;;;;;;;25.30;20.50;;;14.00;99.90;;;;;;5025654;28;20120;-71
2022/05/24 06:54:24;;;;;;;25.40;22.65;;;14.00;99.90;;;;;;5023058;28;20405;-71
2022/05/24 06:56:49;;;;;;;22.73;20.42;;;14.00;99.90;;;;;;5025082;28;20495;-71
2022/05/24 07:04:47;;;;;;;23.42;20.90;;;14.00;99.90;;;;;;5024954;28;20049;-71
2022/05/24 07:07:13;;;;;;;23.77;20.58;;;14.00;99.90;;;;;;5009120;28;20064;-72
2022/05/24 07:09:41;;;;;;;22.60;19.75;;;14.00;99.90;;;;;;4992337;28;20427;-71
2022/05/24 07:12:07;;;;;;;23.35;20.85;;;14.10;99.90;;;;;;4992864;28;20496;-73
2022/05/24 07:14:33;;;;;;;21.92;19.58;;;14.10;99.90;;;;;;5027078;28;20037;-71
2022/05/24 07:16:59;;;;;;;23.52;19.30;;;14.20;99.90;;;;;;5012382;28;20407;-71
2022/05/24 07:19:25;;;;;;;22.25;19.90;;;14.20;99.90;;;;;;5012105;28;20049;-71
2022/05/24 07:21:51;;;;;;;20.27;18.15;;;14.20;99.90;;;;;;5012509;28;20056;-71
2022/05/24 07:24:18;;;;;;;23.65;17.90;;;14.20;99.90;;;;;;5010751;28;20046;-71
2022/05/24 07:26:44;;;;;;;22.83;18.88;;;14.20;99.90;;;;;;5026643;28;20403;-71
2022/05/24 07:29:10;;;;;;;20.70;18.42;;;14.20;99.90;;;;;;5029095;28;20061;-72
2022/05/24 07:31:38;;;;;;;21.75;19.20;;;14.20;99.90;;;;;;5010515;28;20410;-71
2022/05/24 07:34:04;;;;;;;19.55;17.48;;;14.20;99.90;;;;;;5027192;28;20255;-71
2022/05/24 07:36:30;;;;;;;21.20;18.75;;;14.20;99.90;;;;;;5010525;28;20431;-72
2022/05/24 07:38:58;;;;;;;23.30;18.27;;;14.20;99.90;;;;;;5028405;28;20052;-72
2022/05/24 07:46:56;;;;;;;20.25;18.15;;;14.10;99.90;;;;;;5025467;28;21259;-72
2022/05/24 07:49:22;;;;;;;20.88;18.95;;;14.10;99.90;;;;;;5012356;28;20038;-71
2022/05/24 07:51:48;;;;;;;22.48;19.02;;;14.10;99.90;;;;;;5011583;28;20085;-72
2022/05/24 07:54:14;;;;;;;22.02;19.88;;;14.20;99.90;;;;;;5021522;28;20108;-71
2022/05/24 07:56:41;;;;;;;21.65;19.15;;;14.20;99.90;;;;;;5005037;28;20056;-71
2022/05/24 07:59:08;;;;;;;21.00;18.90;;;14.20;99.90;;;;;;5011398;28;20041;-71
2022/05/24 08:01:36;;;;;;;20.25;18.25;;;14.20;99.90;;;;;;5028091;28;20053;-71
2022/05/24 08:04:03;;;;;;;22.23;19.08;;;14.20;99.90;;;;;;5009660;28;20068;-71
2022/05/24 08:06:28;;;;;;;20.30;17.88;;;14.20;99.90;;;;;;5011750;28;20128;-71
2022/05/24 08:08:54;;;;;;;19.48;17.42;;;14.20;99.90;;;;;;5027949;28;20456;-71
2022/05/24 08:11:20;;;;;;;21.02;18.65;;;14.30;99.90;;;;;;4995248;28;20056;-72
2022/05/24 08:13:46;;;;;;;20.75;18.60;;;14.30;99.90;;;;;;5011455;28;20136;-71
2022/05/24 08:16:11;;;;;;;20.05;18.25;;;14.30;99.90;;;;;;4995331;28;20510;-71
2022/05/24 08:18:37;;;;;;;21.27;17.27;;;14.40;99.90;;;;;;5027862;28;20045;-73
2022/05/24 08:21:03;;;;;;;20.25;18.17;;;14.50;99.90;;;;;;5009238;28;20120;-72
2022/05/24 08:23:29;;;;;;;19.35;17.45;;;14.50;99.90;;;;;;5011334;28;20046;-73
2022/05/24 08:25:56;;;;;;;19.15;16.83;;;14.60;99.90;;;;;;4994244;28;20407;-72
2022/05/24 08:28:22;;;;;;;19.50;16.40;;;14.70;99.90;;;;;;5012008;28;20056;-71
2022/05/24 08:30:50;;;;;;;19.85;16.77;;;14.90;99.90;;;;;;4993861;28;20479;-73
2022/05/24 08:33:17;;;;;;;16.95;15.23;;;15.00;99.90;;;;;;5013300;28;20045;-71
2022/05/24 08:35:45;;;;;;;17.25;15.45;;;15.10;99.90;;;;;;5028040;28;20124;-72
2022/05/24 08:38:15;;;;;;;19.17;15.65;;;15.30;99.90;;;;;;5011120;28;20480;-72
2022/05/24 08:40:43;;;;;;;16.38;13.93;;;15.50;99.90;;;;;;5027529;28;20080;-72
2022/05/24 08:43:26;;;;;;;16.30;13.43;;;15.50;99.90;;;;;;5027184;28;20135;-72
2022/05/24 08:48:52;;;;;;;12.65;11.45;;;15.50;99.90;;;;;;5027387;28;20053;-71
2022/05/24 08:51:43;;;;;;;12.63;11.43;;;15.30;99.90;;;;;;5010668;28;20041;-72
2022/05/24 08:54:18;;;;;;;11.40;9.63;;;15.30;99.90;;;;;;5025617;28;20467;-72
2022/05/24 08:56:55;;;;;;;10.95;9.13;;;15.30;99.90;;;;;;5026658;28;20100;-73
2022/05/24 08:59:36;;;;;;;11.50;9.25;;;15.40;99.90;;;;;;5027402;28;20056;-72
2022/05/24 09:02:03;;;;;;;9.75;8.70;;;15.40;99.90;;;;;;5005262;28;20049;-72
2022/05/24 09:04:30;;;;;;;10.15;7.97;;;15.40;99.90;;;;;;5042844;28;20041;-73
2022/05/24 09:07:06;;;;;;;9.30;7.10;;;15.40;99.90;;;;;;5018047;28;20053;-72
2022/05/24 09:09:56;;;;;;;8.75;7.68;;;15.40;99.90;;;;;;5037026;28;20462;-72
2022/05/24 09:12:40;;;;;;;8.73;6.38;;;15.60;99.90;;;;;;5010499;28;20166;-73
2022/05/24 09:15:36;;;;;;;8.75;5.97;;;15.90;99.90;;;;;;5025539;28;20104;-73
2022/05/24 09:18:04;;;;;;;7.75;5.28;;;16.10;99.90;;;;;;5011499;28;20407;-74
2022/05/24 09:20:34;;;;;;;8.77;5.65;;;16.10;99.90;;;;;;5008436;28;20053;-73
2022/05/24 09:23:39;;;;;;;6.43;5.72;;;16.00;99.90;;;;;;5005384;28;20483;-73
2022/05/24 09:26:22;;;;;;;7.75;6.95;;;16.20;99.90;;;;;;4979213;28;20057;-73
2022/05/24 09:28:52;;;;;;;7.70;6.88;;;16.20;99.90;;;;;;5035749;28;20586;-73
2022/05/24 09:31:43;;;;;;;8.38;7.22;;;16.10;99.90;;;;;;5012890;28;20546;-73
2022/05/24 09:34:18;;;;;;;10.32;7.47;;;16.00;99.90;;;;;;5002442;28;20132;-74
2022/05/24 09:36:50;;;;;;;9.80;7.38;;;15.80;99.90;;;;;;5024269;28;20107;-73
2022/05/24 09:39:39;;;;;;;10.43;8.20;;;15.50;99.90;;;;;;5022731;28;20471;-73
2022/05/24 09:42:13;;;;;;;8.57;7.45;;;15.20;99.90;;;;;;5009569;28;20707;-73
2022/05/24 09:45:07;;;;;;;8.75;7.22;;;15.00;99.90;;;;;;5022385;28;20038;-73
2022/05/24 09:47:45;;;;;;;9.65;6.93;;;14.90;99.90;;;;;;5016288;28;20041;-72
2022/05/24 09:50:38;;;;;;;8.10;5.93;;;14.80;99.90;;;;;;5018573;28;20045;-73
2022/05/24 09:53:26;;;;;;;6.47;5.22;;;14.90;99.90;;;;;;4999520;28;20068;-73
2022/05/24 09:56:24;;;;;;;7.18;5.13;;;15.00;99.90;;;;;;5020331;28;20045;-73
2022/05/24 09:58:56;;;;;;;8.05;5.97;;;15.20;99.90;;;;;;5009463;28;20482;-74
2022/05/24 10:01:48;;;;;;;7.35;5.80;;;15.50;99.90;;;;;;5009852;28;20037;-74
2022/05/24 10:04:16;;;;;;;8.45;6.20;;;15.60;99.90;;;;;;5008841;28;20091;-74
2022/05/24 10:06:59;;;;;;;8.20;6.57;;;15.60;99.90;;;;;;5009829;28;20135;-74
2022/05/24 10:09:45;;;;;;;9.30;8.27;;;15.50;99.90;;;;;;5009696;28;20064;-74
2022/05/24 10:12:27;;;;;;;8.85;7.93;;;15.40;99.90;;;;;;5022836;28;20121;-73
2022/05/24 10:15:05;;;;;;;7.50;6.05;;;15.80;99.90;;;;;;5041782;28;20132;-72
2022/05/24 10:17:37;;;;;;;8.23;5.25;;;16.30;99.90;;;;;;5008252;28;20049;-73
2022/05/24 10:20:28;;;;;;;5.70;4.70;;;16.70;99.90;;;;;;5025457;28;20091;-72
2022/05/24 10:23:02;;;;;;;5.35;3.72;;;17.00;99.90;;;;;;5008614;28;20076;-72
2022/05/24 10:25:39;;;;;;;5.68;3.25;;;17.20;99.90;;;;;;5009463;28;20057;-73
2022/05/24 10:28:11;;;;;;;2.83;1.25;;;17.10;99.90;;;;;;5005443;28;20735;-72
2022/05/24 10:30:55;;;;;;;7.45;1.38;;;16.90;99.90;;;;;;5003308;28;20520;-72
2022/05/24 10:40:04;;;;;;;1.98;0.80;;;14.80;99.90;;;;;;5021494;28;20151;-73
2022/05/24 10:42:48;;;;;;;1.50;0.50;;;14.20;99.90;;;;;;5014947;28;20042;-73
2022/05/24 10:45:21;;;;;;;3.63;0.70;;;13.80;99.90;;;;;;5008358;28;20411;-73
2022/05/24 10:48:04;;;;;;;1.98;1.02;;;13.50;99.90;;;;;;5006421;28;20107;-72
2022/05/24 10:50:47;;;;;;;5.75;1.50;;;13.50;99.90;;;;;;5011852;28;20053;-71
2022/05/24 10:53:27;;;;;;;3.58;1.50;;;13.50;99.90;;;;;;5011041;28;20068;-73
2022/05/24 10:56:06;;;;;;;2.85;1.50;;;13.40;99.90;;;;;;5026118;28;20545;-72
2022/05/24 10:58:38;;;;;;;4.75;1.70;;;13.30;99.90;;;;;;5033089;28;20049;-74
2022/05/24 11:01:23;;;;;;;3.17;1.90;;;13.40;99.90;;;;;;5011898;28;20268;-73
2022/05/24 11:03:54;;;;;;;2.60;1.67;;;13.50;99.90;;;;;;5022614;28;20141;-73
2022/05/24 11:06:38;;;;;;;3.85;2.15;;;13.50;99.90;;;;;;5030378;28;20124;-73
2022/05/24 11:09:18;;;;;;;4.00;2.50;;;13.50;99.90;;;;;;5013814;28;20046;-73
2022/05/24 11:11:54;;;;;;;5.68;2.85;;;13.50;99.90;;;;;;5030720;28;20597;-72
2022/05/24 11:14:49;;;;;;;6.38;3.55;;;13.60;99.90;;;;;;4994338;28;20519;-73
2022/05/24 11:17:18;;;;;;;6.10;3.97;;;13.70;99.90;;;;;;4994218;28;20057;-74
2022/05/24 11:19:55;;;;;;;5.47;4.10;;;13.80;99.90;;;;;;4993708;28;20045;-74
2022/05/24 11:22:30;;;;;;;5.85;4.07;;;14.00;99.90;;;;;;5009248;28;20519;-73
2022/05/24 11:25:22;;;;;;;4.80;3.83;;;14.00;99.90;;;;;;4994013;28;20060;-73
2022/05/24 11:28:16;;;;;;;5.78;3.55;;;14.10;99.90;;;;;;5014883;28;20049;-73
2022/05/24 11:30:42;;;;;;;6.55;3.50;;;14.20;99.90;;;;;;5030310;28;20226;-73
2022/05/24 11:33:14;;;;;;;8.13;3.00;;;14.20;99.90;;;;;;5038134;28;20056;-72
2022/05/24 11:35:53;;;;;;;4.80;2.50;;;14.20;99.90;;;;;;5030367;28;20065;-73
2022/05/24 11:38:22;;;;;;;4.82;2.28;;;14.00;99.90;;;;;;4999468;28;20049;-73
2022/05/24 11:40:54;;;;;;;3.97;2.00;;;14.00;99.90;;;;;;5013602;28;20052;-73
2022/05/24 11:43:35;;;;;;;3.58;1.90;;;13.90;99.90;;;;;;5030388;28;20341;-72
2022/05/24 11:46:07;;;;;;;4.43;2.17;;;13.80;99.90;;;;;;5012377;28;20042;-73
2022/05/24 11:48:47;;;;;;;3.67;2.42;;;13.80;99.90;;;;;;5016813;28;20077;-72
2022/05/24 11:51:36;;;;;;;3.72;1.80;;;14.00;99.90;;;;;;5026561;28;20056;-73
2022/05/24 11:54:06;;;;;;;3.95;2.28;;;14.20;99.90;;;;;;5026566;28;20077;-73
2022/05/24 11:56:33;;;;;;;5.43;2.38;;;14.20;99.90;;;;;;5010234;28;20038;-73
2022/05/24 11:59:06;;;;;;;3.83;2.63;;;14.20;99.90;;;;;;5026969;28;20057;-73
2022/05/24 12:01:44;;;;;;;4.38;2.53;;;14.30;99.90;;;;;;5025845;28;20407;-73
2022/05/24 12:10:24;;;;;;;5.45;2.28;;;14.20;99.90;;;;;;5010202;28;20141;-72
2022/05/24 12:12:53;;;;;;;4.72;2.40;;;14.20;99.90;;;;;;5009876;28;20054;-73
2022/05/24 12:15:47;;;;;;;4.25;2.53;;;14.20;99.90;;;;;;5009615;28;20050;-73
2022/05/24 12:18:19;;;;;;;4.10;2.40;;;14.40;99.90;;;;;;5022804;28;20045;-73
2022/05/24 12:20:46;;;;;;;4.18;2.45;;;14.60;99.90;;;;;;5028533;28;20049;-73
2022/05/24 12:23:33;;;;;;;4.55;3.25;;;14.70;99.90;;;;;;5012768;28;20132;-73
2022/05/24 12:26:08;;;;;;;4.15;2.50;;;15.00;99.90;;;;;;5028571;28;20053;-74
2022/05/24 12:28:34;;;;;;;3.42;2.30;;;15.10;99.90;;;;;;4993035;28;20463;-72
2022/05/24 12:31:10;;;;;;;4.05;1.67;;;15.40;99.90;;;;;;5030216;28;20045;-72
2022/05/24 12:34:06;;;;;;;4.15;1.88;;;15.70;99.90;;;;;;5021395;28;20056;-73
2022/05/24 12:36:37;;;;;;;2.75;1.35;;;15.90;99.90;;;;;;4990634;28;20120;-72
2022/05/24 12:39:11;;;;;;;4.35;1.60;;;15.90;99.90;;;;;;5019254;28;20066;-73
2022/05/24 12:41:43;;;;;;;3.65;0.80;;;15.60;99.90;;;;;;5022678;28;20054;-72
2022/05/24 12:44:22;;;;;;;2.08;0.90;;;15.40;99.90;;;;;;5006662;28;20049;-73
2022/05/24 12:47:08;;;;;;;2.67;0.88;;;15.10;99.90;;;;;;5025335;28;20053;-72
2022/05/24 12:49:56;;;;;;;4.05;0.90;;;14.80;99.90;;;;;;5003501;28;20144;-73
2022/05/24 12:52:28;;;;;;;2.60;1.00;;;14.70;99.90;;;;;;5028137;28;20060;-73
2022/05/24 12:54:56;;;;;;;1.92;0.70;;;14.80;99.90;;;;;;5012897;28;20094;-72
2022/05/24 12:57:29;;;;;;;3.55;0.90;;;14.90;99.90;;;;;;4998764;28;20428;-72
2022/05/24 12:59:57;;;;;;;2.97;1.00;;;15.10;99.90;;;;;;5026878;28;20491;-73
2022/05/24 13:02:34;;;;;;;3.47;0.90;;;15.00;99.90;;;;;;5025907;28;20159;-73
2022/05/24 13:05:12;;;;;;;3.97;1.17;;;15.00;99.90;;;;;;5018538;28;20045;-73
2022/05/24 13:07:43;;;;;;;3.85;1.30;;;15.00;99.90;;;;;;5025370;28;20514;-73
2022/05/24 13:10:24;;;;;;;2.25;1.30;;;15.00;99.90;;;;;;5008135;28;20484;-73
2022/05/24 13:13:03;;;;;;;3.38;1.30;;;15.00;99.90;;;;;;5020750;28;20099;-72
2022/05/24 13:15:43;;;;;;;2.85;1.30;;;15.00;99.90;;;;;;4992238;28;20513;-72
2022/05/24 13:18:12;;;;;;;2.75;1.67;;;15.10;99.90;;;;;;4992673;28;20054;-73
2022/05/24 13:20:40;;;;;;;2.40;1.58;;;15.20;99.90;;;;;;4999435;28;20053;-72
2022/05/24 13:23:15;;;;;;;3.63;1.60;;;15.50;99.90;;;;;;5027722;28;20060;-72
2022/05/24 13:25:55;;;;;;;6.20;2.28;;;15.70;99.90;;;;;;5028212;28;20123;-73
2022/05/24 13:28:32;;;;;;;2.33;1.27;;;15.90;99.90;;;;;;4998625;28;20484;-73
2022/05/24 13:33:58;;;;;;;5.68;2.17;;;16.00;99.90;;;;;;5013818;28;20542;-72
2022/05/24 13:36:30;;;;;;;3.42;2.00;;;15.90;99.90;;;;;;5010976;28;20042;-72
2022/05/24 13:39:02;;;;;;;3.90;2.25;;;16.00;99.90;;;;;;5001052;28;20570;-72
2022/05/24 13:41:36;;;;;;;5.03;2.38;;;16.00;99.90;;;;;;5011035;28;20045;-72
2022/05/24 13:44:20;;;;;;;3.50;2.50;;;16.00;99.90;;;;;;5011014;28;20052;-72
2022/05/24 13:46:52;;;;;;;5.78;2.67;;;15.90;99.90;;;;;;5006382;28;20081;-72
2022/05/24 13:49:29;;;;;;;5.50;2.70;;;15.80;99.90;;;;;;5012246;28;20037;-72
2022/05/24 13:52:36;;;;;;;3.95;2.13;;;15.70;99.90;;;;;;5015570;28;20062;-72